This is the latest recevied weather packets stored in our database for station/object K0QJ. If no packets are shown the sender has not sent any weather packets the latest 10 day(s).
| Time | Temp. | Humidity | Pressure | Rain* | Wind** | Luminosity | Snow |
|---|---|---|---|---|---|---|---|
| 1778185528 | 20° C | 48% | 1011.3 hPa | 0 mm | - | 636 W/m² | - |
| 1778185224 | 20° C | 49% | 1011.3 hPa | 0 mm | - | 293 W/m² | - |
| 1778184920 | 20° C | 48% | 1011.5 hPa | 0 mm | - | 704 W/m² | - |
| 1778184616 | 20° C | 48% | 1011.7 hPa | 0 mm | - | 715 W/m² | - |
| 1778184312 | 20° C | 49% | 1011.9 hPa | 0 mm | - | 762 W/m² | - |
| 1778184008 | 19.44° C | 50% | 1011.8 hPa | 0 mm | - | 765 W/m² | - |
| 1778183705 | 20° C | 48% | 1011.8 hPa | 0 mm | - | 744 W/m² | - |
| 1778183403 | 18.89° C | 51% | 1011.7 hPa | 0 mm | - | 767 W/m² | - |
| 1778183099 | 19.44° C | 49% | 1012 hPa | 0 mm | - | 265 W/m² | - |
| 1778182795 | 18.89° C | 52% | 1011.9 hPa | 0 mm | - | 730 W/m² | - |
| 1778182493 | 20° C | 48% | 1011.8 hPa | 0 mm | - | 690 W/m² | - |
| 1778182189 | 19.44° C | 49% | 1012.1 hPa | 0 mm | - | 639 W/m² | - |
| 1778181885 | 19.44° C | 50% | 1012 hPa | 0 mm | - | 699 W/m² | - |
| 1778181582 | 19.44° C | 49% | 1012 hPa | 0 mm | - | 363 W/m² | - |
| 1778181278 | 19.44° C | 49% | 1012.3 hPa | 0 mm | - | 459 W/m² | - |
| 1778180975 | 19.44° C | 49% | 1012.2 hPa | 0 mm | - | 695 W/m² | - |
| 1778180673 | 18.89° C | 52% | 1012.5 hPa | 0 mm | - | 746 W/m² | - |
| 1778180371 | 18.89° C | 51% | 1012.5 hPa | 0 mm | - | 790 W/m² | - |
| 1778180068 | 18.33° C | 52% | 1012.7 hPa | 0 mm | - | 810 W/m² | - |
| 1778179765 | 18.33° C | 52% | 1012.7 hPa | 0 mm | - | 570 W/m² | - |
| 1778179463 | 18.89° C | 52% | 1012.7 hPa | 0 mm | - | 666 W/m² | - |
| 1778179161 | 18.89° C | 53% | 1012.9 hPa | 0 mm | - | 675 W/m² | - |
| 1778178857 | 18.89° C | 50% | 1013.2 hPa | 0 mm | - | 812 W/m² | - |
| 1778178555 | 18.89° C | 51% | 1013.1 hPa | 0 mm | - | 791 W/m² | - |
| 1778178250 | 17.78° C | 53% | 1013.1 hPa | 0 mm | - | 852 W/m² | - |
* Rain latest hour (hover to see other rain measurements)
** Current wind speed in m/s (hover to see current wind gust speed)